createdAt,value
2023-01-28T00:02:27.409Z,100721.53
2023-01-28T00:04:58.643Z,100712.41
2023-01-28T00:07:29.811Z,100714.78
2023-01-28T00:10:00.746Z,100718.84
2023-01-28T00:12:33.430Z,100709.00
2023-01-28T00:15:05.861Z,100708.44
2023-01-28T00:17:38.357Z,100713.22
2023-01-28T00:20:10.421Z,100697.03
2023-01-28T00:22:41.560Z,100693.69
2023-01-28T00:25:13.266Z,100682.16
2023-01-28T00:27:43.758Z,100691.22
2023-01-28T00:30:15.539Z,100684.38
2023-01-28T00:32:47.001Z,100682.06
2023-01-28T00:35:18.374Z,100689.31
2023-01-28T00:37:49.706Z,100685.13
2023-01-28T00:40:21.107Z,100688.09
2023-01-28T00:42:52.238Z,100675.22
2023-01-28T00:45:24.379Z,100665.56
2023-01-28T00:47:55.578Z,100658.31
2023-01-28T00:50:26.795Z,100646.22
2023-01-28T00:52:57.990Z,100644.47
2023-01-28T00:55:29.742Z,100640.50
2023-01-28T00:58:00.796Z,100651.78
2023-01-28T01:00:31.987Z,100648.44
2023-01-28T01:03:03.089Z,100641.16
2023-01-28T01:05:35.303Z,100646.81
2023-01-28T01:08:07.097Z,100636.06
2023-01-28T01:10:40.262Z,100652.34
2023-01-28T01:13:11.735Z,100656.25
2023-01-28T01:15:43.719Z,100634.53
2023-01-28T01:18:14.885Z,100637.88
2023-01-28T01:20:46.939Z,100632.91
2023-01-28T01:23:18.047Z,100631.84
2023-01-28T01:25:48.988Z,100630.59
2023-01-28T01:28:22.233Z,100621.34
2023-01-28T01:31:00.790Z,100625.47
2023-01-28T01:33:32.632Z,100639.31
2023-01-28T01:36:04.058Z,100630.50
2023-01-28T01:38:35.014Z,100633.91
2023-01-28T01:41:07.295Z,100623.38
2023-01-28T01:44:15.831Z,100604.91
2023-01-28T01:46:51.493Z,100616.31
2023-01-28T01:49:28.267Z,100617.31
2023-01-28T01:52:20.363Z,100611.03
2023-01-28T01:54:53.897Z,100604.38
2023-01-28T01:57:33.203Z,100615.09
2023-01-28T02:00:09.295Z,100621.41
2023-01-28T02:02:49.864Z,100611.06
2023-01-28T02:05:23.898Z,100610.47
2023-01-28T02:07:57.068Z,100615.78
2023-01-28T02:10:28.514Z,100620.81
2023-01-28T02:13:00.349Z,100622.78
2023-01-28T02:15:32.775Z,100637.13
2023-01-28T02:18:05.031Z,100633.06
2023-01-28T02:20:59.709Z,100638.91
2023-01-28T02:23:33.733Z,100632.09
2023-01-28T02:26:28.314Z,100622.72
2023-01-28T02:29:08.599Z,100619.16
2023-01-28T02:31:55.092Z,100621.22
2023-01-28T02:34:50.103Z,100628.47
2023-01-28T02:37:42.794Z,100622.84
2023-01-28T02:40:16.871Z,100620.41
2023-01-28T02:42:49.254Z,100609.34
2023-01-28T02:45:53.903Z,100609.03
2023-01-28T02:48:25.819Z,100612.47
2023-01-28T02:51:05.408Z,100617.78
2023-01-28T02:54:22.812Z,100605.97
2023-01-28T02:56:59.718Z,100614.69
2023-01-28T02:59:33.448Z,100602.75
2023-01-28T03:02:18.308Z,100611.94
2023-01-28T03:05:00.799Z,100615.72
2023-01-28T03:07:36.755Z,100612.88
2023-01-28T03:10:13.261Z,100620.31
2023-01-28T03:13:04.819Z,100627.97
2023-01-28T03:16:09.349Z,100640.16
2023-01-28T03:19:00.571Z,100631.63
2023-01-28T03:21:53.996Z,100635.22
2023-01-28T03:25:15.962Z,100632.59
2023-01-28T03:28:10.171Z,100627.69
2023-01-28T03:31:13.054Z,100631.34
2023-01-28T03:34:09.859Z,100634.47
2023-01-28T03:36:51.174Z,100620.06
2023-01-28T03:39:41.762Z,100628.94
2023-01-28T03:42:16.171Z,100636.34
2023-01-28T03:45:10.705Z,100624.31
2023-01-28T03:47:42.230Z,100621.47
2023-01-28T03:50:14.825Z,100624.84
2023-01-28T03:53:16.362Z,100627.00
2023-01-28T03:56:00.493Z,100615.69
2023-01-28T03:59:09.754Z,100617.13
2023-01-28T04:01:41.097Z,100625.75
2023-01-28T04:04:24.331Z,100636.97
2023-01-28T04:06:58.620Z,100652.94
2023-01-28T04:09:58.746Z,100666.34
2023-01-28T04:12:39.652Z,100682.25
2023-01-28T04:15:17.018Z,100683.06
2023-01-28T04:17:50.507Z,100692.28
2023-01-28T04:20:41.018Z,100696.00
2023-01-28T04:23:12.156Z,100709.47
2023-01-28T04:25:43.292Z,100693.31
2023-01-28T04:28:14.808Z,100710.44
2023-01-28T04:30:45.912Z,100710.94
2023-01-28T04:33:28.949Z,100699.78
2023-01-28T04:36:07.318Z,100694.38
2023-01-28T04:38:56.517Z,100697.75
2023-01-28T04:41:39.515Z,100693.69
2023-01-28T04:44:22.409Z,100695.72
2023-01-28T04:47:22.069Z,100699.19
2023-01-28T04:50:13.257Z,100695.13
2023-01-28T04:53:02.626Z,100696.00
2023-01-28T04:56:03.005Z,100697.50
2023-01-28T04:58:37.506Z,100703.13
2023-01-28T05:01:13.284Z,100698.13
2023-01-28T05:03:44.405Z,100708.66
2023-01-28T05:06:24.296Z,100702.53
2023-01-28T05:08:59.415Z,100706.88
2023-01-28T05:11:31.136Z,100702.38
2023-01-28T05:14:06.563Z,100715.94
2023-01-28T05:16:44.164Z,100725.31
2023-01-28T05:19:15.741Z,100723.97
2023-01-28T05:21:50.180Z,100716.41
2023-01-28T05:24:34.830Z,100723.22
2023-01-28T05:27:07.131Z,100729.03
2023-01-28T05:29:38.208Z,100726.94
2023-01-28T05:32:09.444Z,100724.81
2023-01-28T05:34:40.777Z,100732.41
2023-01-28T05:37:15.987Z,100725.97
2023-01-28T05:39:48.250Z,100726.44
2023-01-28T05:42:22.213Z,100724.50
2023-01-28T05:44:58.036Z,100743.09
2023-01-28T05:47:45.801Z,100743.06
2023-01-28T05:50:35.515Z,100735.97
2023-01-28T05:53:29.124Z,100737.44
2023-01-28T05:56:00.060Z,100745.66
2023-01-28T05:58:33.629Z,100741.94
2023-01-28T06:01:06.658Z,100737.44
2023-01-28T06:04:41.307Z,100748.44
2023-01-28T06:07:14.725Z,100745.03
2023-01-28T06:09:46.666Z,100754.75
2023-01-28T06:12:19.797Z,100752.28
2023-01-28T06:15:16.722Z,100760.03
2023-01-28T06:18:10.571Z,100771.44
2023-01-28T06:20:41.999Z,100763.06
2023-01-28T06:23:14.263Z,100776.28
2023-01-28T06:25:45.694Z,100756.16
2023-01-28T06:28:18.756Z,100760.16
2023-01-28T06:30:53.865Z,100773.63
2023-01-28T06:33:25.786Z,100781.22
2023-01-28T06:35:57.009Z,100786.41
2023-01-28T06:38:28.117Z,100786.41
2023-01-28T06:40:59.763Z,100795.44
2023-01-28T06:43:32.058Z,100811.13
2023-01-28T06:46:03.526Z,100811.50
2023-01-28T06:48:34.661Z,100821.72
2023-01-28T06:51:06.244Z,100824.25
2023-01-28T06:53:37.332Z,100820.66
2023-01-28T06:56:09.246Z,100828.94
2023-01-28T06:58:40.761Z,100836.19
2023-01-28T07:01:12.124Z,100835.00
2023-01-28T07:03:43.081Z,100850.22
2023-01-28T07:06:13.977Z,100847.91
2023-01-28T07:08:45.357Z,100849.53
2023-01-28T07:11:17.022Z,100862.09
2023-01-28T07:13:49.047Z,100862.22
2023-01-28T07:16:20.461Z,100855.69
2023-01-28T07:18:52.705Z,100877.81
2023-01-28T07:21:24.215Z,100881.53
2023-01-28T07:23:56.016Z,100885.53
2023-01-28T07:26:27.462Z,100883.25
2023-01-28T07:28:58.619Z,100893.25
2023-01-28T07:31:29.790Z,100899.66
2023-01-28T07:34:01.205Z,100908.69
2023-01-28T07:36:35.744Z,100914.91
2023-01-28T07:39:07.127Z,100905.94
2023-01-28T07:41:38.068Z,100912.06
2023-01-28T07:44:10.605Z,100918.03
2023-01-28T07:46:41.843Z,100924.47
2023-01-28T07:49:13.035Z,100913.91
2023-01-28T07:51:44.331Z,100930.25
2023-01-28T07:54:15.685Z,100946.03
2023-01-28T07:56:46.730Z,100941.59
2023-01-28T07:59:17.897Z,100954.81
2023-01-28T08:01:49.307Z,100953.94
2023-01-28T08:04:20.521Z,100961.88
2023-01-28T08:06:53.678Z,100964.63
2023-01-28T08:09:24.707Z,100966.53
2023-01-28T08:11:56.095Z,100963.41
2023-01-28T08:14:27.493Z,100982.78
2023-01-28T08:16:59.566Z,100985.34
2023-01-28T08:19:30.579Z,100981.28
2023-01-28T08:22:01.550Z,100987.25
2023-01-28T08:24:33.014Z,100994.69
2023-01-28T08:27:04.425Z,101001.09
2023-01-28T08:29:35.377Z,101000.06
2023-01-28T08:32:06.848Z,101013.38
2023-01-28T08:34:38.433Z,101018.53
2023-01-28T08:37:09.274Z,101009.81
2023-01-28T08:39:40.444Z,101019.84
2023-01-28T08:42:11.540Z,101018.84
2023-01-28T08:44:42.724Z,101026.88
2023-01-28T08:47:14.051Z,101027.75
2023-01-28T08:49:45.265Z,101027.25
2023-01-28T08:52:16.238Z,101036.19
2023-01-28T08:54:47.268Z,101038.91
2023-01-28T08:57:18.244Z,101046.09
2023-01-28T08:59:49.381Z,101044.78
2023-01-28T09:02:31.056Z,101053.91
2023-01-28T09:05:02.978Z,101053.72
2023-01-28T09:07:36.193Z,101063.34
2023-01-28T09:10:08.295Z,101058.78
2023-01-28T09:12:39.538Z,101073.47
2023-01-28T09:15:11.614Z,101066.66
2023-01-28T09:17:42.758Z,101071.31
2023-01-28T09:20:15.662Z,101075.38
2023-01-28T09:22:47.238Z,101075.59
2023-01-28T09:25:18.102Z,101081.06
2023-01-28T09:27:50.613Z,101085.28
2023-01-28T09:30:21.892Z,101085.06
2023-01-28T09:32:56.884Z,101079.00
2023-01-28T09:35:27.820Z,101077.97
2023-01-28T09:38:00.441Z,101076.34
2023-01-28T09:40:41.992Z,101085.47
2023-01-28T09:43:37.482Z,101096.63
2023-01-28T09:46:09.285Z,101107.16
2023-01-28T09:48:49.222Z,101109.59
2023-01-28T09:51:36.545Z,101115.28
2023-01-28T09:54:28.090Z,101110.91
2023-01-28T09:57:08.515Z,101120.84
2023-01-28T09:59:39.856Z,101125.00
2023-01-28T10:02:13.963Z,101123.81
2023-01-28T10:05:06.438Z,101124.59
2023-01-28T10:07:46.696Z,101127.91
2023-01-28T10:10:32.153Z,101137.78
2023-01-28T10:13:26.493Z,101141.22
2023-01-28T10:16:04.235Z,101138.00
2023-01-28T10:19:05.504Z,101144.34
2023-01-28T10:21:36.477Z,101139.47
2023-01-28T10:24:47.028Z,101152.91
2023-01-28T10:27:28.643Z,101150.25
2023-01-28T10:30:03.126Z,101146.16
2023-01-28T10:32:36.143Z,101148.19
2023-01-28T10:35:07.899Z,101146.84
2023-01-28T10:37:40.759Z,101154.75
2023-01-28T10:40:19.666Z,101142.94
2023-01-28T10:42:50.739Z,101141.59
2023-01-28T10:45:24.739Z,101138.34
2023-01-28T10:48:04.749Z,101133.72
2023-01-28T10:50:36.860Z,101128.03
2023-01-28T10:53:08.819Z,101130.03
2023-01-28T10:56:00.514Z,101136.25
2023-01-28T10:58:33.325Z,101133.22
2023-01-28T11:01:07.793Z,101126.69
2023-01-28T11:03:38.913Z,101132.72
2023-01-28T11:06:29.805Z,101126.41
2023-01-28T11:09:01.640Z,101128.13
2023-01-28T11:11:32.835Z,101125.75
2023-01-28T11:14:04.183Z,101125.69
2023-01-28T11:16:35.330Z,101127.88
2023-01-28T11:19:07.850Z,101127.59
2023-01-28T11:21:38.798Z,101125.03
2023-01-28T11:24:18.612Z,101132.06
2023-01-28T11:26:53.023Z,101131.16
2023-01-28T11:29:34.091Z,101128.91
2023-01-28T11:32:05.239Z,101138.56
2023-01-28T11:34:37.911Z,101128.81
2023-01-28T11:37:20.055Z,101130.84
2023-01-28T11:39:51.880Z,101116.84
2023-01-28T11:42:24.529Z,101137.94
2023-01-28T11:44:56.595Z,101149.47
2023-01-28T11:47:44.888Z,101150.00
2023-01-28T11:50:27.155Z,101159.81
2023-01-28T11:53:21.378Z,101167.00
2023-01-28T11:56:27.850Z,101174.31
2023-01-28T11:59:18.122Z,101171.34
2023-01-28T12:02:15.623Z,101176.91
2023-01-28T12:05:33.747Z,101173.66
2023-01-28T12:08:24.572Z,101164.25
2023-01-28T12:11:43.499Z,101178.25
2023-01-28T12:14:39.147Z,101177.66
2023-01-28T12:17:31.143Z,101182.53
2023-01-28T12:20:17.587Z,101178.72
2023-01-28T12:23:21.344Z,101189.94
2023-01-28T12:26:25.840Z,101188.97
2023-01-28T12:29:28.877Z,101184.91
2023-01-28T12:32:09.497Z,101159.81
2023-01-28T12:35:02.313Z,101161.91
2023-01-28T12:37:54.696Z,101165.78
2023-01-28T12:40:49.540Z,101171.28
2023-01-28T12:43:23.467Z,101171.34
2023-01-28T12:45:59.883Z,101173.28
2023-01-28T12:48:36.947Z,101189.22
2023-01-28T12:51:17.960Z,101199.13
2023-01-28T12:54:06.399Z,101198.19
2023-01-28T12:56:43.884Z,101188.59
2023-01-28T12:59:29.961Z,101191.66
2023-01-28T13:02:16.367Z,101174.94
2023-01-28T13:05:23.091Z,101169.78
2023-01-28T13:08:05.944Z,101174.41
2023-01-28T13:10:43.135Z,101159.13
2023-01-28T13:13:43.762Z,101162.13
2023-01-28T13:16:16.574Z,101145.16
2023-01-28T13:18:48.909Z,101139.47
2023-01-28T13:21:32.420Z,101164.59
2023-01-28T13:24:05.628Z,101182.84
2023-01-28T13:26:46.125Z,101174.13
2023-01-28T13:29:16.950Z,101169.44
2023-01-28T13:31:52.960Z,101170.28
2023-01-28T13:34:31.342Z,101176.88
2023-01-28T13:37:15.618Z,101177.66
2023-01-28T13:39:52.119Z,101184.78
2023-01-28T13:42:27.425Z,101177.31
2023-01-28T13:45:10.577Z,101178.66
2023-01-28T13:47:41.955Z,101181.16
2023-01-28T13:50:20.475Z,101163.69
2023-01-28T13:53:18.694Z,101166.72
2023-01-28T13:55:50.282Z,101151.41
2023-01-28T14:02:13.051Z,101130.66
2023-01-28T14:05:18.545Z,101129.31
2023-01-28T14:08:16.526Z,101129.31
2023-01-28T14:11:08.319Z,101125.25
2023-01-28T14:14:00.742Z,101109.66
2023-01-28T14:16:44.724Z,101121.72
2023-01-28T14:19:16.420Z,101121.72
2023-01-28T14:21:47.353Z,101137.00
2023-01-28T14:24:20.354Z,101134.56
2023-01-28T14:27:12.980Z,101138.41
2023-01-28T14:29:49.954Z,101139.19
2023-01-28T14:32:30.709Z,101147.41
2023-01-28T14:35:08.377Z,101160.00
2023-01-28T14:37:39.267Z,101156.94
2023-01-28T14:40:15.086Z,101173.69
2023-01-28T14:42:48.719Z,101182.69
2023-01-28T14:46:00.967Z,101198.28
2023-01-28T14:48:41.765Z,101209.47
2023-01-28T14:51:18.340Z,101215.44
2023-01-28T14:54:21.415Z,101233.19
2023-01-28T14:57:01.683Z,101230.16
2023-01-28T14:59:51.145Z,101235.41
2023-01-28T15:02:28.089Z,101234.88
2023-01-28T15:05:33.472Z,101235.09
2023-01-28T15:08:04.248Z,101227.50
2023-01-28T15:10:44.419Z,101236.50
2023-01-28T15:13:25.919Z,101240.34
2023-01-28T15:16:03.225Z,101242.28
2023-01-28T15:18:41.703Z,101248.03
2023-01-28T15:21:13.149Z,101241.97
2023-01-28T15:23:45.130Z,101247.75
2023-01-28T15:26:24.068Z,101245.88
2023-01-28T15:28:56.539Z,101250.78
2023-01-28T15:31:34.151Z,101251.88
2023-01-28T15:34:17.914Z,101262.81
2023-01-28T15:36:52.580Z,101247.28
2023-01-28T15:39:25.718Z,101242.63
2023-01-28T15:42:01.425Z,101244.25
2023-01-28T15:44:40.752Z,101256.88
2023-01-28T15:47:34.787Z,101258.22
2023-01-28T15:50:08.516Z,101257.13
2023-01-28T15:52:41.764Z,101247.81
2023-01-28T15:55:49.032Z,101259.31
2023-01-28T15:58:36.617Z,101254.16
2023-01-28T16:01:17.486Z,101250.88
2023-01-28T16:03:50.416Z,101256.00
2023-01-28T16:06:23.860Z,101258.75
2023-01-28T16:08:58.133Z,101264.22
2023-01-28T16:11:32.675Z,101270.78
2023-01-28T16:14:04.257Z,101269.97
2023-01-28T16:16:37.280Z,101277.41
2023-01-28T16:19:09.749Z,101279.38
2023-01-28T16:21:46.583Z,101279.75
2023-01-28T16:24:37.528Z,101293.59
2023-01-28T16:27:26.312Z,101298.28
2023-01-28T16:29:57.702Z,101301.06
2023-01-28T16:32:38.142Z,101302.94
2023-01-28T16:35:23.307Z,101319.13
2023-01-28T16:37:55.400Z,101309.91
2023-01-28T16:40:27.175Z,101323.75
2023-01-28T16:42:58.555Z,101324.91
2023-01-28T16:45:29.544Z,101326.78
2023-01-28T16:48:00.807Z,101332.00
2023-01-28T16:50:31.929Z,101332.03
2023-01-28T16:53:03.247Z,101337.22
2023-01-28T16:55:34.139Z,101341.06
2023-01-28T16:58:05.211Z,101341.88
2023-01-28T17:00:38.064Z,101335.84
2023-01-28T17:03:08.929Z,101348.41
2023-01-28T17:05:40.260Z,101342.69
2023-01-28T17:08:11.434Z,101353.31
2023-01-28T17:10:42.684Z,101347.84
2023-01-28T17:13:14.072Z,101359.06
2023-01-28T17:15:45.327Z,101360.94
2023-01-28T17:18:16.642Z,101358.72
2023-01-28T17:20:47.884Z,101364.72
2023-01-28T17:23:24.340Z,101368.56
2023-01-28T17:25:55.377Z,101375.09
2023-01-28T17:28:26.299Z,101367.19
2023-01-28T17:30:57.652Z,101370.72
2023-01-28T17:33:28.671Z,101365.78
2023-01-28T17:35:59.853Z,101363.31
2023-01-28T17:38:30.901Z,101378.84
2023-01-28T17:41:06.176Z,101367.06
2023-01-28T17:43:37.529Z,101371.75
2023-01-28T17:46:20.520Z,101381.03
2023-01-28T17:48:52.467Z,101394.16
2023-01-28T17:51:23.902Z,101393.63
2023-01-28T17:53:55.779Z,101399.91
2023-01-28T17:56:27.391Z,101397.44
2023-01-28T17:59:08.131Z,101401.03
2023-01-28T18:01:39.307Z,101411.47
2023-01-28T18:04:11.702Z,101422.13
2023-01-28T18:06:42.950Z,101419.66
2023-01-28T18:09:14.633Z,101420.22
2023-01-28T18:11:45.110Z,101434.19
2023-01-28T18:14:16.252Z,101444.09
2023-01-28T18:16:47.442Z,101446.03
2023-01-28T18:19:18.444Z,101440.84
2023-01-28T18:21:53.632Z,101440.28
2023-01-28T18:24:26.567Z,101449.03
2023-01-28T18:27:04.601Z,101446.59
2023-01-28T18:29:35.725Z,101442.47
2023-01-28T18:32:07.969Z,101447.41
2023-01-28T18:34:39.465Z,101473.06
2023-01-28T18:37:11.421Z,101468.41
2023-01-28T18:39:44.536Z,101469.69
2023-01-28T18:42:15.898Z,101474.63
2023-01-28T18:44:47.182Z,101480.38
2023-01-28T18:47:19.265Z,101485.84
2023-01-28T18:49:50.344Z,101503.09
2023-01-28T18:52:21.340Z,101486.44
2023-01-28T18:54:52.188Z,101505.56
2023-01-28T18:57:23.289Z,101506.69
2023-01-28T18:59:54.563Z,101511.06
2023-01-28T19:02:25.645Z,101520.09
2023-01-28T19:04:58.662Z,101524.47
2023-01-28T19:07:29.735Z,101533.78
2023-01-28T19:10:00.643Z,101531.06
2023-01-28T19:12:33.752Z,101530.22
2023-01-28T19:15:04.902Z,101543.63
2023-01-28T19:17:36.192Z,101545.84
2023-01-28T19:20:08.087Z,101543.09
2023-01-28T19:22:39.181Z,101540.03
2023-01-28T19:25:12.115Z,101541.91
2023-01-28T19:27:42.968Z,101543.56
2023-01-28T19:30:14.570Z,101548.97
2023-01-28T19:32:45.263Z,101551.16
2023-01-28T19:35:16.721Z,101563.13
2023-01-28T19:37:48.167Z,101559.25
2023-01-28T19:40:20.112Z,101578.31
2023-01-28T19:42:55.206Z,101570.38
2023-01-28T19:45:26.465Z,101579.63
2023-01-28T19:47:57.735Z,101592.72
2023-01-28T19:50:28.821Z,101592.91
2023-01-28T19:53:00.222Z,101584.31
2023-01-28T19:55:31.363Z,101583.19
2023-01-28T19:58:02.762Z,101590.00
2023-01-28T20:00:33.833Z,101577.66
2023-01-28T20:03:07.825Z,101574.09
2023-01-28T20:05:38.867Z,101591.06
2023-01-28T20:08:10.120Z,101588.56
2023-01-28T20:10:43.160Z,101591.06
2023-01-28T20:13:14.353Z,101590.53
2023-01-28T20:15:45.314Z,101597.69
2023-01-28T20:18:18.832Z,101606.75
2023-01-28T20:20:57.176Z,101597.25
2023-01-28T20:23:28.477Z,101583.25
2023-01-28T20:26:02.387Z,101574.28
2023-01-28T20:28:33.307Z,101568.00
2023-01-28T20:31:09.266Z,101581.94
2023-01-28T20:33:41.131Z,101582.50
2023-01-28T20:36:13.976Z,101581.97
2023-01-28T20:38:47.318Z,101597.31
2023-01-28T20:41:24.334Z,101588.63
2023-01-28T20:43:56.465Z,101599.56
2023-01-28T20:46:32.926Z,101609.50
2023-01-28T20:49:07.918Z,101608.41
2023-01-28T20:51:39.761Z,101609.25
2023-01-28T20:54:14.056Z,101617.47
2023-01-28T20:56:45.580Z,101602.91
2023-01-28T20:59:16.604Z,101605.69
2023-01-28T21:01:48.320Z,101619.63
2023-01-28T21:04:18.794Z,101628.09
2023-01-28T21:06:50.109Z,101640.41
2023-01-28T21:09:21.160Z,101662.56
2023-01-28T21:11:52.098Z,101679.25
2023-01-28T21:14:23.537Z,101676.47
2023-01-28T21:16:54.692Z,101681.66
2023-01-28T21:19:25.854Z,101698.38
2023-01-28T21:21:57.044Z,101683.06
2023-01-28T21:24:28.288Z,101700.03
2023-01-28T21:26:59.722Z,101711.53
2023-01-28T21:29:31.029Z,101721.13
2023-01-28T21:32:02.101Z,101730.72
2023-01-28T21:34:33.462Z,101736.50
2023-01-28T21:37:04.734Z,101746.38
2023-01-28T21:39:35.833Z,101738.16
2023-01-28T21:42:07.418Z,101752.94
2023-01-28T21:44:38.432Z,101758.44
2023-01-28T21:47:09.809Z,101763.09
2023-01-28T21:49:41.251Z,101763.38
2023-01-28T21:52:12.253Z,101769.94
2023-01-28T21:54:43.532Z,101763.91
2023-01-28T21:57:14.664Z,101765.84
2023-01-28T21:59:46.001Z,101763.91
2023-01-28T22:02:17.663Z,101766.97
2023-01-28T22:04:51.083Z,101775.69
2023-01-28T22:07:22.754Z,101774.63
2023-01-28T22:09:54.076Z,101769.97
2023-01-28T22:12:25.559Z,101776.53
2023-01-28T22:14:56.543Z,101768.88
2023-01-28T22:17:27.747Z,101773.53
2023-01-28T22:19:58.868Z,101779.28
2023-01-28T22:22:30.011Z,101781.22
2023-01-28T22:25:01.436Z,101779.81
2023-01-28T22:27:33.203Z,101780.38
2023-01-28T22:30:04.779Z,101771.34
2023-01-28T22:32:35.781Z,101770.53
2023-01-28T22:35:07.270Z,101768.88
2023-01-28T22:37:38.961Z,101762.28
2023-01-28T22:40:09.866Z,101757.94
2023-01-28T22:42:43.031Z,101756.28
2023-01-28T22:45:14.293Z,101746.38
2023-01-28T22:47:48.493Z,101743.63
2023-01-28T22:50:19.733Z,101742.47
2023-01-28T22:52:51.362Z,101731.19
2023-01-28T22:55:22.521Z,101739.63
2023-01-28T22:57:53.694Z,101726.44
2023-01-28T23:00:29.876Z,101725.31
2023-01-28T23:03:01.923Z,101729.03
2023-01-28T23:05:33.117Z,101721.94
2023-01-28T23:08:11.846Z,101727.97
2023-01-28T23:10:48.762Z,101718.06
2023-01-28T23:13:21.933Z,101721.53
2023-01-28T23:16:12.216Z,101716.91
2023-01-28T23:18:43.466Z,101712.22
2023-01-28T23:21:40.038Z,101707.03
2023-01-28T23:24:26.101Z,101700.97
2023-01-28T23:26:59.694Z,101698.66
2023-01-28T23:29:32.528Z,101695.41
2023-01-28T23:32:09.015Z,101699.47
2023-01-28T23:34:42.741Z,101694.84
2023-01-28T23:37:15.394Z,101694.50
2023-01-28T23:39:46.340Z,101682.38
2023-01-28T23:42:19.710Z,101676.03
2023-01-28T23:44:51.441Z,101680.34
2023-01-28T23:47:22.419Z,101679.13
2023-01-28T23:49:53.632Z,101680.44
2023-01-28T23:52:25.188Z,101676.34
2023-01-28T23:54:56.576Z,101664.44
2023-01-28T23:57:27.969Z,101685.53
2023-01-28T23:59:59.369Z,101685.06
